EWG27D LGIR-EDDH
Flight info
| Callsign | EWG27D |
|---|---|
| Flight time | 3h 17m |
| Altitude | 34000 |
| Route | EPALO M749 DIRMI UM749 ATV DCT BITLA DCT ENFAR DCT UTOMO/N0458F360 DCT PODOB DCT GUBOK DCT VEBAL DCT ARSIN DCT DITIS DCT KILNU DCT ABGUS DCT DIRBO/N0393F230 T902 RARUP RARUP3D |
| Aircraft | A321/M-SDE3FGHIRWY/LB1 |
Departure
| Time | 2026-05-01 11:02 |
|---|---|
| Airport | Heraklion International Nikos Kazantzakis Airport (LGIR) |
Arrival
| Time | 2026-05-01 14:20 |
|---|---|
| Airport | Hamburg Helmut Schmidt Airport (EDDH) |
| Time | Latitude | Longitude | Altitude | Speed | Heading |
|---|---|---|---|---|---|
| 2026-05-01 10:47 | 35.33819 | 25.17417 | 92 ft | 0 kts | 317° |
| 2026-05-01 10:56 | 35.33828 | 25.17407 | 91 ft | 4 kts | 317° |
| 2026-05-01 10:56 | 35.33858 | 25.17381 | 91 ft | 7 kts | 336° |
| 2026-05-01 10:56 | 35.33906 | 25.17390 | 92 ft | 8 kts | 39° |
| 2026-05-01 10:57 | 35.33914 | 25.17462 | 91 ft | 11 kts | 95° |
| 2026-05-01 10:57 | 35.33907 | 25.17565 | 94 ft | 13 kts | 95° |
| 2026-05-01 10:57 | 35.33899 | 25.17684 | 92 ft | 15 kts | 95° |
| 2026-05-01 10:57 | 35.33890 | 25.17817 | 92 ft | 16 kts | 95° |
| 2026-05-01 10:58 | 35.33880 | 25.17958 | 95 ft | 17 kts | 95° |
| 2026-05-01 10:58 | 35.33870 | 25.18105 | 94 ft | 17 kts | 95° |
| 2026-05-01 10:58 | 35.33860 | 25.18252 | 93 ft | 18 kts | 95° |
| 2026-05-01 10:58 | 35.33849 | 25.18411 | 91 ft | 20 kts | 95° |
| 2026-05-01 10:59 | 35.33838 | 25.18584 | 90 ft | 21 kts | 95° |
| 2026-05-01 10:59 | 35.33825 | 25.18761 | 92 ft | 21 kts | 95° |
| 2026-05-01 10:59 | 35.33819 | 25.18846 | 90 ft | 0 kts | 94° |
| 2026-05-01 10:59 | 35.33819 | 25.18847 | 90 ft | 0 kts | 94° |
| 2026-05-01 11:00 | 35.33817 | 25.18875 | 90 ft | 7 kts | 94° |
| 2026-05-01 11:00 | 35.33832 | 25.18954 | 91 ft | 11 kts | 56° |
| 2026-05-01 11:00 | 35.33885 | 25.19031 | 92 ft | 11 kts | 25° |
| 2026-05-01 11:01 | 35.33910 | 25.18986 | 87 ft | 7 kts | 268° |
| 2026-05-01 11:01 | 35.33910 | 25.18969 | 91 ft | 0 kts | 274° |
| 2026-05-01 11:01 | 35.33917 | 25.18857 | 88 ft | 45 kts | 275° |
| 2026-05-01 11:01 | 35.33964 | 25.18176 | 93 ft | 113 kts | 275° |
| 2026-05-01 11:02 | 35.34047 | 25.16983 | 105 ft | 164 kts | 274° |
| 2026-05-01 11:02 | 35.34166 | 25.15596 | 890 ft | 155 kts | 283° |
| 2026-05-01 11:02 | 35.34517 | 25.14356 | 1466 ft | 157 kts | 314° |
| 2026-05-01 11:02 | 35.35453 | 25.13705 | 1840 ft | 161 kts | 351° |
| 2026-05-01 11:03 | 35.36605 | 25.13422 | 2161 ft | 177 kts | 349° |
| 2026-05-01 11:03 | 35.37865 | 25.13064 | 2453 ft | 196 kts | 347° |
| 2026-05-01 11:03 | 35.39247 | 25.12638 | 2689 ft | 215 kts | 345° |
| 2026-05-01 11:03 | 35.40777 | 25.12137 | 2870 ft | 242 kts | 345° |
| 2026-05-01 11:04 | 35.42454 | 25.11575 | 3399 ft | 254 kts | 344° |
| 2026-05-01 11:04 | 35.44177 | 25.10980 | 4033 ft | 260 kts | 342° |
| 2026-05-01 11:04 | 35.45924 | 25.10358 | 4685 ft | 261 kts | 342° |
| 2026-05-01 11:04 | 35.47679 | 25.09715 | 5216 ft | 270 kts | 341° |
| 2026-05-01 11:05 | 35.49490 | 25.09043 | 5903 ft | 271 kts | 341° |
| 2026-05-01 11:05 | 35.51306 | 25.08382 | 6627 ft | 273 kts | 340° |
| 2026-05-01 11:05 | 35.53137 | 25.07721 | 7343 ft | 274 kts | 339° |
| 2026-05-01 11:05 | 35.54971 | 25.07062 | 8087 ft | 276 kts | 339° |
| 2026-05-01 11:06 | 35.56822 | 25.06396 | 8850 ft | 278 kts | 339° |
| 2026-05-01 11:06 | 35.58687 | 25.05723 | 9569 ft | 281 kts | 339° |
| 2026-05-01 11:06 | 35.60567 | 25.05042 | 10219 ft | 283 kts | 338° |
| 2026-05-01 11:07 | 35.64596 | 25.03561 | 10578 ft | 322 kts | 339° |
| 2026-05-01 11:07 | 35.66807 | 25.02745 | 10699 ft | 341 kts | 339° |
| 2026-05-01 11:07 | 35.69153 | 25.01884 | 11033 ft | 351 kts | 339° |
| 2026-05-01 11:07 | 35.71471 | 25.01035 | 11566 ft | 355 kts | 338° |
| 2026-05-01 11:08 | 35.73815 | 25.00080 | 12131 ft | 356 kts | 336° |
| 2026-05-01 11:08 | 35.76143 | 24.99016 | 12707 ft | 358 kts | 334° |
| 2026-05-01 11:08 | 35.80836 | 24.96730 | 13857 ft | 363 kts | 333° |
| 2026-05-01 11:09 | 35.83192 | 24.95582 | 14365 ft | 365 kts | 334° |
| 2026-05-01 11:09 | 35.85566 | 24.94439 | 14855 ft | 368 kts | 334° |
| 2026-05-01 11:09 | 35.87962 | 24.93300 | 15361 ft | 371 kts | 334° |
| 2026-05-01 11:10 | 35.92812 | 24.91013 | 16344 ft | 376 kts | 334° |
| 2026-05-01 11:10 | 35.95264 | 24.89858 | 16832 ft | 378 kts | 334° |
| 2026-05-01 11:10 | 35.97732 | 24.88696 | 17323 ft | 381 kts | 334° |
| 2026-05-01 11:10 | 36.00213 | 24.87528 | 17777 ft | 383 kts | 333° |
| 2026-05-01 11:11 | 36.02716 | 24.86346 | 18223 ft | 386 kts | 333° |
| 2026-05-01 11:11 | 36.05226 | 24.85156 | 18625 ft | 388 kts | 333° |
| 2026-05-01 11:11 | 36.07755 | 24.83958 | 19029 ft | 390 kts | 333° |
| 2026-05-01 11:11 | 36.10294 | 24.82759 | 19436 ft | 391 kts | 333° |
| 2026-05-01 11:12 | 36.12838 | 24.81555 | 19849 ft | 392 kts | 333° |
| 2026-05-01 11:12 | 36.15389 | 24.80341 | 20264 ft | 393 kts | 332° |
| 2026-05-01 11:12 | 36.17979 | 24.79107 | 20687 ft | 395 kts | 332° |
| 2026-05-01 11:12 | 36.20546 | 24.77888 | 21104 ft | 396 kts | 332° |
| 2026-05-01 11:13 | 36.22250 | 24.77080 | 21395 ft | 397 kts | 332° |
| 2026-05-01 11:13 | 36.24837 | 24.75855 | 21795 ft | 398 kts | 332° |
| 2026-05-01 11:13 | 36.27432 | 24.74625 | 22191 ft | 400 kts | 332° |
| 2026-05-01 11:13 | 36.30032 | 24.73391 | 22593 ft | 401 kts | 331° |
| 2026-05-01 11:14 | 36.32641 | 24.72149 | 22981 ft | 402 kts | 331° |
| 2026-05-01 11:14 | 36.35258 | 24.70901 | 23363 ft | 404 kts | 331° |
| 2026-05-01 11:14 | 36.37885 | 24.69644 | 23729 ft | 405 kts | 331° |
| 2026-05-01 11:14 | 36.40522 | 24.68382 | 24042 ft | 407 kts | 331° |
| 2026-05-01 11:15 | 36.43167 | 24.67117 | 24361 ft | 408 kts | 331° |
| 2026-05-01 11:15 | 36.45820 | 24.65851 | 24675 ft | 409 kts | 331° |
| 2026-05-01 11:15 | 36.48479 | 24.64580 | 25030 ft | 410 kts | 331° |
| 2026-05-01 11:15 | 36.51146 | 24.63300 | 25347 ft | 411 kts | 331° |
| 2026-05-01 11:16 | 36.53816 | 24.62015 | 25666 ft | 412 kts | 330° |
| 2026-05-01 11:16 | 36.56497 | 24.60728 | 25972 ft | 414 kts | 330° |
| 2026-05-01 11:16 | 36.59223 | 24.59421 | 26291 ft | 415 kts | 330° |
| 2026-05-01 11:16 | 36.61917 | 24.58130 | 26596 ft | 416 kts | 330° |
| 2026-05-01 11:17 | 36.64621 | 24.56832 | 26893 ft | 417 kts | 330° |
| 2026-05-01 11:17 | 36.67327 | 24.55530 | 27180 ft | 418 kts | 330° |
| 2026-05-01 11:17 | 36.70043 | 24.54219 | 27453 ft | 419 kts | 330° |
| 2026-05-01 11:17 | 36.72767 | 24.52904 | 27728 ft | 420 kts | 330° |
| 2026-05-01 11:18 | 36.75455 | 24.51516 | 27962 ft | 416 kts | 326° |
| 2026-05-01 11:18 | 36.78049 | 24.49914 | 28227 ft | 416 kts | 325° |
| 2026-05-01 11:18 | 36.80643 | 24.48308 | 28461 ft | 417 kts | 325° |
| 2026-05-01 11:18 | 36.83245 | 24.46699 | 28678 ft | 418 kts | 325° |
| 2026-05-01 11:19 | 36.85852 | 24.45092 | 28929 ft | 418 kts | 325° |
| 2026-05-01 11:19 | 36.88455 | 24.43491 | 29253 ft | 416 kts | 325° |
| 2026-05-01 11:19 | 36.91050 | 24.41893 | 29576 ft | 414 kts | 325° |
| 2026-05-01 11:19 | 36.93627 | 24.40299 | 29900 ft | 413 kts | 325° |
| 2026-05-01 11:20 | 36.96195 | 24.38706 | 30207 ft | 411 kts | 325° |
| 2026-05-01 11:20 | 36.98749 | 24.37120 | 30555 ft | 409 kts | 324° |
| 2026-05-01 11:20 | 37.01295 | 24.35543 | 30846 ft | 407 kts | 324° |
| 2026-05-01 11:20 | 37.03831 | 24.33971 | 31092 ft | 406 kts | 324° |
| 2026-05-01 11:21 | 37.06358 | 24.32401 | 31326 ft | 406 kts | 324° |
| 2026-05-01 11:21 | 37.08887 | 24.30828 | 31556 ft | 405 kts | 324° |
| 2026-05-01 11:21 | 37.11408 | 24.29261 | 31786 ft | 405 kts | 324° |
| 2026-05-01 11:21 | 37.13930 | 24.27691 | 31991 ft | 404 kts | 324° |
| 2026-05-01 11:22 | 37.16441 | 24.26122 | 32215 ft | 404 kts | 324° |
| 2026-05-01 11:22 | 37.18956 | 24.24545 | 32434 ft | 404 kts | 324° |
| 2026-05-01 11:22 | 37.21469 | 24.22972 | 32653 ft | 403 kts | 324° |
| 2026-05-01 11:22 | 37.23971 | 24.21411 | 32919 ft | 403 kts | 324° |
| 2026-05-01 11:23 | 37.26483 | 24.19844 | 33170 ft | 401 kts | 324° |
| 2026-05-01 11:23 | 37.28979 | 24.18287 | 33402 ft | 400 kts | 324° |
| 2026-05-01 11:23 | 37.31470 | 24.16726 | 33617 ft | 400 kts | 324° |
| 2026-05-01 11:23 | 37.33957 | 24.15162 | 33823 ft | 399 kts | 324° |
| 2026-05-01 11:24 | 37.36441 | 24.13599 | 34031 ft | 399 kts | 324° |
| 2026-05-01 11:24 | 37.38933 | 24.12034 | 34125 ft | 401 kts | 324° |
| 2026-05-01 11:25 | 37.46558 | 24.07237 | 34139 ft | 412 kts | 324° |
| 2026-05-01 11:25 | 37.54339 | 24.02341 | 34139 ft | 422 kts | 324° |
| 2026-05-01 11:26 | 37.62279 | 23.97323 | 34464 ft | 424 kts | 324° |
| 2026-05-01 11:26 | 37.64901 | 23.95674 | 34868 ft | 418 kts | 324° |
| 2026-05-01 11:27 | 37.67468 | 23.94069 | 35272 ft | 406 kts | 324° |
| 2026-05-01 11:27 | 37.72438 | 23.90939 | 34710 ft | 396 kts | 323° |
| 2026-05-01 11:27 | 37.74890 | 23.89377 | 34324 ft | 393 kts | 323° |
| 2026-05-01 11:28 | 37.77330 | 23.87819 | 34158 ft | 393 kts | 323° |
| 2026-05-01 11:28 | 37.82223 | 23.84690 | 34162 ft | 395 kts | 323° |
| 2026-05-01 11:29 | 37.89556 | 23.79965 | 34170 ft | 393 kts | 321° |
| 2026-05-01 11:30 | 37.96512 | 23.74637 | 34184 ft | 388 kts | 318° |
| 2026-05-01 11:30 | 38.01065 | 23.70957 | 34214 ft | 388 kts | 318° |
| 2026-05-01 11:31 | 38.05681 | 23.67301 | 34192 ft | 389 kts | 318° |
| 2026-05-01 11:31 | 38.10291 | 23.63707 | 34189 ft | 389 kts | 319° |
| 2026-05-01 11:32 | 38.14899 | 23.60107 | 34184 ft | 389 kts | 319° |
| 2026-05-01 11:32 | 38.19501 | 23.56492 | 34187 ft | 389 kts | 318° |
| 2026-05-01 11:33 | 38.24099 | 23.52869 | 34200 ft | 389 kts | 319° |
| 2026-05-01 11:33 | 38.28700 | 23.49248 | 34202 ft | 389 kts | 318° |
| 2026-05-01 11:34 | 38.33304 | 23.45619 | 34203 ft | 389 kts | 318° |
| 2026-05-01 11:34 | 38.37896 | 23.41979 | 34217 ft | 389 kts | 318° |
| 2026-05-01 11:35 | 38.42492 | 23.38336 | 34212 ft | 389 kts | 318° |
| 2026-05-01 11:35 | 38.47087 | 23.34704 | 34213 ft | 388 kts | 319° |
| 2026-05-01 11:36 | 38.51673 | 23.31066 | 34263 ft | 388 kts | 318° |
| 2026-05-01 11:36 | 38.56254 | 23.27413 | 34208 ft | 388 kts | 319° |
| 2026-05-01 11:37 | 38.60835 | 23.23767 | 34199 ft | 388 kts | 318° |
| 2026-05-01 11:37 | 38.65422 | 23.20099 | 34210 ft | 389 kts | 318° |
| 2026-05-01 11:38 | 38.70048 | 23.16401 | 34216 ft | 390 kts | 318° |
| 2026-05-01 11:38 | 38.74651 | 23.12727 | 34226 ft | 390 kts | 318° |
| 2026-05-01 11:39 | 38.79257 | 23.09042 | 34231 ft | 391 kts | 319° |
| 2026-05-01 11:39 | 38.83871 | 23.05333 | 34220 ft | 392 kts | 319° |
| 2026-05-01 11:40 | 38.88495 | 23.01615 | 34223 ft | 393 kts | 319° |
| 2026-05-01 11:40 | 38.93132 | 22.97888 | 34229 ft | 393 kts | 319° |
| 2026-05-01 11:41 | 38.97771 | 22.94152 | 34240 ft | 394 kts | 319° |
| 2026-05-01 11:41 | 39.02404 | 22.90396 | 34244 ft | 394 kts | 319° |
| 2026-05-01 11:42 | 39.07051 | 22.86625 | 34274 ft | 396 kts | 319° |
| 2026-05-01 11:42 | 39.11731 | 22.82840 | 34270 ft | 397 kts | 319° |
| 2026-05-01 11:43 | 39.16414 | 22.79045 | 34265 ft | 398 kts | 319° |
| 2026-05-01 11:43 | 39.21101 | 22.75239 | 34265 ft | 398 kts | 319° |
| 2026-05-01 11:44 | 39.28136 | 22.69514 | 34264 ft | 399 kts | 319° |
| 2026-05-01 11:44 | 39.32843 | 22.65667 | 34253 ft | 402 kts | 319° |
| 2026-05-01 11:45 | 39.37604 | 22.61777 | 34232 ft | 403 kts | 320° |
| 2026-05-01 11:45 | 39.42339 | 22.57904 | 34232 ft | 403 kts | 319° |
| 2026-05-01 11:46 | 39.47084 | 22.54009 | 34236 ft | 404 kts | 319° |
| 2026-05-01 11:46 | 39.51030 | 22.50768 | 34240 ft | 404 kts | 319° |
| 2026-05-01 11:47 | 39.55780 | 22.46863 | 34267 ft | 405 kts | 320° |
| 2026-05-01 11:47 | 39.60549 | 22.42933 | 34248 ft | 407 kts | 320° |
| 2026-05-01 11:48 | 39.65334 | 22.38982 | 34234 ft | 408 kts | 320° |
| 2026-05-01 11:48 | 39.70132 | 22.35015 | 34236 ft | 409 kts | 320° |
| 2026-05-01 11:49 | 39.74934 | 22.31037 | 34242 ft | 410 kts | 320° |
| 2026-05-01 11:49 | 39.79740 | 22.27045 | 34256 ft | 410 kts | 321° |
| 2026-05-01 11:50 | 39.84593 | 22.23011 | 34241 ft | 412 kts | 320° |
| 2026-05-01 11:50 | 39.89427 | 22.18996 | 34237 ft | 413 kts | 320° |
| 2026-05-01 11:51 | 39.94271 | 22.14965 | 34241 ft | 413 kts | 320° |
| 2026-05-01 11:51 | 39.99110 | 22.10915 | 34244 ft | 414 kts | 320° |
| 2026-05-01 11:52 | 40.03966 | 22.06860 | 34261 ft | 415 kts | 321° |
| 2026-05-01 11:52 | 40.08831 | 22.02778 | 34235 ft | 417 kts | 321° |
| 2026-05-01 11:53 | 40.13714 | 21.98675 | 34230 ft | 418 kts | 321° |
| 2026-05-01 11:53 | 40.18607 | 21.94560 | 34230 ft | 418 kts | 321° |
| 2026-05-01 11:54 | 40.23502 | 21.90434 | 34232 ft | 419 kts | 321° |
| 2026-05-01 11:54 | 40.28403 | 21.86306 | 34236 ft | 419 kts | 321° |
| 2026-05-01 11:55 | 40.33305 | 21.82155 | 34251 ft | 420 kts | 321° |
| 2026-05-01 11:55 | 40.38226 | 21.77994 | 34251 ft | 421 kts | 322° |
| 2026-05-01 11:56 | 40.43156 | 21.73814 | 34237 ft | 422 kts | 321° |
| 2026-05-01 11:56 | 40.48092 | 21.69616 | 34228 ft | 423 kts | 322° |
| 2026-05-01 11:57 | 40.53028 | 21.65409 | 34229 ft | 423 kts | 322° |
| 2026-05-01 11:57 | 40.58010 | 21.61166 | 34225 ft | 424 kts | 322° |
| 2026-05-01 11:58 | 40.62966 | 21.56937 | 34219 ft | 425 kts | 322° |
| 2026-05-01 11:59 | 40.70406 | 21.50570 | 34219 ft | 425 kts | 322° |
| 2026-05-01 11:59 | 40.75363 | 21.46310 | 34224 ft | 426 kts | 322° |
| 2026-05-01 12:00 | 40.82805 | 21.39904 | 34247 ft | 426 kts | 322° |
| 2026-05-01 12:01 | 40.90225 | 21.33463 | 34239 ft | 425 kts | 321° |
| 2026-05-01 12:01 | 40.95095 | 21.29029 | 34233 ft | 425 kts | 320° |
| 2026-05-01 12:02 | 40.99944 | 21.24560 | 34236 ft | 425 kts | 320° |
| 2026-05-01 12:02 | 41.04802 | 21.20104 | 34241 ft | 425 kts | 321° |
| 2026-05-01 12:03 | 41.09681 | 21.15655 | 34230 ft | 426 kts | 321° |
| 2026-05-01 12:03 | 41.14572 | 21.11195 | 34220 ft | 427 kts | 321° |
| 2026-05-01 12:04 | 41.19465 | 21.06727 | 34217 ft | 427 kts | 321° |
| 2026-05-01 12:04 | 41.24355 | 21.02230 | 34220 ft | 428 kts | 321° |
| 2026-05-01 12:05 | 41.29276 | 20.97692 | 34233 ft | 428 kts | 322° |
| 2026-05-01 12:05 | 41.36623 | 20.90910 | 34225 ft | 429 kts | 322° |
| 2026-05-01 12:06 | 41.41529 | 20.86373 | 34219 ft | 429 kts | 322° |
| 2026-05-01 12:06 | 41.46432 | 20.81829 | 34227 ft | 430 kts | 322° |
| 2026-05-01 12:07 | 41.51342 | 20.77279 | 34244 ft | 430 kts | 322° |
| 2026-05-01 12:07 | 41.56259 | 20.72702 | 34222 ft | 431 kts | 322° |
| 2026-05-01 12:08 | 41.61181 | 20.68115 | 34228 ft | 432 kts | 322° |
| 2026-05-01 12:08 | 41.66117 | 20.63522 | 34229 ft | 433 kts | 322° |
| 2026-05-01 12:09 | 41.71046 | 20.58910 | 34227 ft | 433 kts | 322° |
| 2026-05-01 12:09 | 41.75976 | 20.54284 | 34237 ft | 433 kts | 322° |
| 2026-05-01 12:10 | 41.83800 | 20.48125 | 34238 ft | 435 kts | 328° |
| 2026-05-01 12:11 | 41.91694 | 20.42075 | 34230 ft | 435 kts | 328° |
| 2026-05-01 12:11 | 41.96952 | 20.38032 | 34230 ft | 436 kts | 328° |
| 2026-05-01 12:12 | 42.02247 | 20.33958 | 34248 ft | 435 kts | 328° |
| 2026-05-01 12:12 | 42.07482 | 20.29909 | 34235 ft | 434 kts | 328° |
| 2026-05-01 12:13 | 42.12717 | 20.25854 | 34234 ft | 434 kts | 328° |
| 2026-05-01 12:13 | 42.17952 | 20.21792 | 34242 ft | 434 kts | 328° |
| 2026-05-01 12:14 | 42.23188 | 20.17728 | 34253 ft | 434 kts | 328° |
| 2026-05-01 12:14 | 42.28413 | 20.13661 | 34253 ft | 433 kts | 328° |
| 2026-05-01 12:15 | 42.33636 | 20.09585 | 34229 ft | 434 kts | 329° |
| 2026-05-01 12:15 | 42.38869 | 20.05502 | 34230 ft | 435 kts | 329° |
| 2026-05-01 12:16 | 42.44099 | 20.01412 | 34242 ft | 434 kts | 329° |
| 2026-05-01 12:16 | 42.49319 | 19.97313 | 34259 ft | 433 kts | 329° |
| 2026-05-01 12:17 | 42.54538 | 19.93208 | 34238 ft | 434 kts | 329° |
| 2026-05-01 12:17 | 42.59759 | 19.89092 | 34240 ft | 434 kts | 329° |
| 2026-05-01 12:18 | 42.64964 | 19.84984 | 34256 ft | 432 kts | 329° |
| 2026-05-01 12:18 | 42.70206 | 19.80853 | 34250 ft | 433 kts | 330° |
| 2026-05-01 12:19 | 42.75434 | 19.76737 | 34229 ft | 433 kts | 330° |
| 2026-05-01 12:19 | 42.80652 | 19.72621 | 34244 ft | 434 kts | 330° |
| 2026-05-01 12:20 | 42.84983 | 19.69195 | 34256 ft | 433 kts | 330° |
| 2026-05-01 12:20 | 42.90185 | 19.65068 | 34255 ft | 433 kts | 331° |
| 2026-05-01 12:21 | 42.95402 | 19.60917 | 34236 ft | 435 kts | 331° |
| 2026-05-01 12:21 | 43.00630 | 19.56754 | 34253 ft | 435 kts | 331° |
| 2026-05-01 12:22 | 43.05852 | 19.52584 | 34260 ft | 435 kts | 331° |
| 2026-05-01 12:22 | 43.11115 | 19.48373 | 34264 ft | 436 kts | 330° |
| 2026-05-01 12:23 | 43.16356 | 19.44175 | 34251 ft | 436 kts | 331° |
| 2026-05-01 12:23 | 43.21589 | 19.39982 | 34281 ft | 435 kts | 331° |
| 2026-05-01 12:24 | 43.26802 | 19.35786 | 34273 ft | 434 kts | 331° |
| 2026-05-01 12:24 | 43.32014 | 19.31582 | 34259 ft | 435 kts | 331° |
| 2026-05-01 12:25 | 43.39860 | 19.25249 | 34267 ft | 437 kts | 332° |
| 2026-05-01 12:26 | 43.45096 | 19.21017 | 34279 ft | 437 kts | 331° |
| 2026-05-01 12:26 | 43.52992 | 19.14602 | 34267 ft | 438 kts | 332° |
| 2026-05-01 12:27 | 43.60847 | 19.08157 | 34285 ft | 438 kts | 332° |
| 2026-05-01 12:28 | 43.68538 | 19.01791 | 34288 ft | 439 kts | 332° |
| 2026-05-01 12:29 | 43.76394 | 18.95270 | 34281 ft | 439 kts | 332° |
| 2026-05-01 12:29 | 43.84260 | 18.88723 | 34294 ft | 440 kts | 332° |
| 2026-05-01 12:30 | 43.92144 | 18.82150 | 34304 ft | 441 kts | 332° |
| 2026-05-01 12:31 | 43.97408 | 18.77760 | 34318 ft | 442 kts | 332° |
| 2026-05-01 12:31 | 44.02666 | 18.73348 | 34302 ft | 441 kts | 333° |
| 2026-05-01 12:32 | 44.07956 | 18.68903 | 34322 ft | 444 kts | 333° |
| 2026-05-01 12:32 | 44.16004 | 18.62144 | 34310 ft | 457 kts | 333° |
| 2026-05-01 12:33 | 44.21456 | 18.57539 | 34306 ft | 450 kts | 333° |
| 2026-05-01 12:33 | 44.26720 | 18.53075 | 34317 ft | 439 kts | 333° |
| 2026-05-01 12:34 | 44.31925 | 18.48662 | 34324 ft | 437 kts | 333° |
| 2026-05-01 12:34 | 44.37120 | 18.44249 | 34326 ft | 437 kts | 333° |
| 2026-05-01 12:35 | 44.42310 | 18.39832 | 34329 ft | 437 kts | 333° |
| 2026-05-01 12:35 | 44.47497 | 18.35410 | 34333 ft | 437 kts | 333° |
| 2026-05-01 12:36 | 44.52686 | 18.30977 | 34327 ft | 437 kts | 334° |
| 2026-05-01 12:36 | 44.57903 | 18.26491 | 34346 ft | 436 kts | 334° |
| 2026-05-01 12:37 | 44.63083 | 18.22047 | 34362 ft | 436 kts | 334° |
| 2026-05-01 12:37 | 44.68262 | 18.17600 | 34361 ft | 436 kts | 334° |
| 2026-05-01 12:38 | 44.73434 | 18.13151 | 34371 ft | 436 kts | 334° |
| 2026-05-01 12:38 | 44.78595 | 18.08688 | 34342 ft | 435 kts | 335° |
| 2026-05-01 12:39 | 44.83747 | 18.04219 | 34360 ft | 435 kts | 335° |
| 2026-05-01 12:39 | 44.88889 | 17.99746 | 34369 ft | 434 kts | 335° |
| 2026-05-01 12:40 | 44.94032 | 17.95280 | 34372 ft | 434 kts | 335° |
| 2026-05-01 12:40 | 44.99172 | 17.90811 | 34373 ft | 434 kts | 336° |
| 2026-05-01 12:41 | 45.04319 | 17.86383 | 34346 ft | 430 kts | 340° |
| 2026-05-01 12:41 | 45.09747 | 17.83083 | 34356 ft | 424 kts | 345° |
| 2026-05-01 12:42 | 45.15197 | 17.79888 | 34361 ft | 424 kts | 345° |
| 2026-05-01 12:42 | 45.20652 | 17.76676 | 34361 ft | 424 kts | 346° |
| 2026-05-01 12:43 | 45.26127 | 17.73442 | 34372 ft | 424 kts | 346° |
| 2026-05-01 12:43 | 45.31568 | 17.70218 | 34375 ft | 423 kts | 346° |
| 2026-05-01 12:44 | 45.37001 | 17.66999 | 34348 ft | 423 kts | 346° |
| 2026-05-01 12:45 | 45.47858 | 17.60534 | 34366 ft | 423 kts | 346° |
| 2026-05-01 12:45 | 45.53320 | 17.57278 | 34370 ft | 423 kts | 346° |
| 2026-05-01 12:46 | 45.58752 | 17.54035 | 34372 ft | 423 kts | 346° |
| 2026-05-01 12:46 | 45.64175 | 17.50787 | 34360 ft | 422 kts | 346° |
| 2026-05-01 12:47 | 45.69593 | 17.47532 | 34347 ft | 422 kts | 346° |
| 2026-05-01 12:47 | 45.75021 | 17.44266 | 34362 ft | 422 kts | 346° |
| 2026-05-01 12:48 | 45.80428 | 17.41011 | 34368 ft | 421 kts | 346° |
| 2026-05-01 12:48 | 45.85835 | 17.37746 | 34363 ft | 421 kts | 346° |
| 2026-05-01 12:49 | 45.91259 | 17.34455 | 34369 ft | 421 kts | 346° |
| 2026-05-01 12:49 | 45.96656 | 17.31177 | 34371 ft | 421 kts | 346° |
| 2026-05-01 12:50 | 46.01205 | 17.28971 | 34372 ft | 409 kts | 355° |
| 2026-05-01 12:50 | 46.06756 | 17.27139 | 34331 ft | 409 kts | 355° |
| 2026-05-01 12:51 | 46.12342 | 17.25266 | 34342 ft | 409 kts | 355° |
| 2026-05-01 12:52 | 46.20670 | 17.22444 | 34366 ft | 410 kts | 355° |
| 2026-05-01 12:52 | 46.29008 | 17.19629 | 34371 ft | 410 kts | 354° |
| 2026-05-01 12:53 | 46.37338 | 17.16813 | 34383 ft | 410 kts | 354° |
| 2026-05-01 12:54 | 46.42888 | 17.14926 | 34390 ft | 409 kts | 354° |
| 2026-05-01 12:54 | 46.51206 | 17.12087 | 34362 ft | 409 kts | 354° |
| 2026-05-01 12:55 | 46.59529 | 17.09260 | 34390 ft | 410 kts | 354° |
| 2026-05-01 12:56 | 46.65081 | 17.07365 | 34402 ft | 410 kts | 354° |
| 2026-05-01 12:56 | 46.70631 | 17.05454 | 34404 ft | 410 kts | 354° |
| 2026-05-01 12:57 | 46.76216 | 17.03518 | 34398 ft | 410 kts | 353° |
| 2026-05-01 12:57 | 46.84536 | 17.00646 | 34394 ft | 409 kts | 353° |
| 2026-05-01 12:58 | 46.90079 | 16.98727 | 34389 ft | 409 kts | 353° |
| 2026-05-01 12:59 | 46.98391 | 16.95847 | 34369 ft | 409 kts | 353° |
| 2026-05-01 12:59 | 47.06699 | 16.92971 | 34377 ft | 409 kts | 353° |
| 2026-05-01 13:00 | 47.14988 | 16.90074 | 34382 ft | 408 kts | 353° |
| 2026-05-01 13:01 | 47.23311 | 16.87150 | 34382 ft | 408 kts | 352° |
| 2026-05-01 13:02 | 47.31596 | 16.84240 | 34384 ft | 408 kts | 353° |
| 2026-05-01 13:07 | 47.84731 | 16.41844 | 36034 ft | 431 kts | 327° |
| 2026-05-01 13:07 | 47.87058 | 16.39033 | 36265 ft | 431 kts | 327° |
| 2026-05-01 13:07 | 47.89388 | 16.36220 | 36367 ft | 431 kts | 327° |
| 2026-05-01 13:08 | 47.91716 | 16.33407 | 36375 ft | 431 kts | 327° |
| 2026-05-01 13:08 | 47.96366 | 16.27784 | 36373 ft | 431 kts | 327° |
| 2026-05-01 13:09 | 48.01020 | 16.22145 | 36378 ft | 431 kts | 327° |
| 2026-05-01 13:09 | 48.05665 | 16.16494 | 36378 ft | 431 kts | 327° |
| 2026-05-01 13:10 | 48.10309 | 16.10828 | 36381 ft | 431 kts | 327° |
| 2026-05-01 13:10 | 48.14957 | 16.05143 | 36389 ft | 432 kts | 327° |
| 2026-05-01 13:11 | 48.19605 | 15.99434 | 36358 ft | 432 kts | 327° |
| 2026-05-01 13:11 | 48.24262 | 15.93717 | 36374 ft | 433 kts | 327° |
| 2026-05-01 13:12 | 48.28953 | 15.87943 | 36387 ft | 433 kts | 326° |
| 2026-05-01 13:12 | 48.33614 | 15.82193 | 36395 ft | 434 kts | 326° |
| 2026-05-01 13:13 | 48.38271 | 15.76422 | 36400 ft | 434 kts | 326° |
| 2026-05-01 13:13 | 48.42924 | 15.70637 | 36402 ft | 434 kts | 326° |
| 2026-05-01 13:14 | 48.47575 | 15.64841 | 36377 ft | 434 kts | 326° |
| 2026-05-01 13:14 | 48.52238 | 15.59034 | 36389 ft | 435 kts | 326° |
| 2026-05-01 13:15 | 48.56901 | 15.53208 | 36391 ft | 435 kts | 326° |
| 2026-05-01 13:15 | 48.61572 | 15.47400 | 36394 ft | 435 kts | 326° |
| 2026-05-01 13:16 | 48.66221 | 15.41531 | 36399 ft | 435 kts | 326° |
| 2026-05-01 13:16 | 48.70867 | 15.35648 | 36374 ft | 436 kts | 325° |
| 2026-05-01 13:17 | 48.80177 | 15.23878 | 36395 ft | 436 kts | 325° |
| 2026-05-01 13:18 | 48.87185 | 15.14973 | 36402 ft | 436 kts | 325° |
| 2026-05-01 13:18 | 48.91821 | 15.09028 | 36400 ft | 436 kts | 324° |
| 2026-05-01 13:19 | 48.96392 | 15.02930 | 36386 ft | 437 kts | 323° |
| 2026-05-01 13:20 | 49.03213 | 14.93678 | 36399 ft | 438 kts | 323° |
| 2026-05-01 13:20 | 49.07778 | 14.87524 | 36401 ft | 438 kts | 323° |
| 2026-05-01 13:21 | 49.14628 | 14.78299 | 36411 ft | 438 kts | 323° |
| 2026-05-01 13:21 | 49.18445 | 14.73136 | 36383 ft | 438 kts | 323° |
| 2026-05-01 13:22 | 49.23010 | 14.66946 | 36393 ft | 438 kts | 323° |
| 2026-05-01 13:22 | 49.27567 | 14.60736 | 36400 ft | 439 kts | 322° |
| 2026-05-01 13:23 | 49.32123 | 14.54521 | 36408 ft | 439 kts | 322° |
| 2026-05-01 13:23 | 49.36677 | 14.48287 | 36410 ft | 439 kts | 322° |
| 2026-05-01 13:24 | 49.41254 | 14.42001 | 36414 ft | 439 kts | 322° |
| 2026-05-01 13:25 | 49.48075 | 14.32606 | 36405 ft | 439 kts | 322° |
| 2026-05-01 13:25 | 49.52616 | 14.26335 | 36410 ft | 439 kts | 322° |
| 2026-05-01 13:26 | 49.57158 | 14.20053 | 36409 ft | 439 kts | 322° |
| 2026-05-01 13:26 | 49.61701 | 14.13744 | 36415 ft | 439 kts | 322° |
| 2026-05-01 13:27 | 49.66268 | 14.07392 | 36394 ft | 439 kts | 321° |
| 2026-05-01 13:27 | 49.73026 | 13.97961 | 36393 ft | 437 kts | 321° |
| 2026-05-01 13:28 | 49.79827 | 13.88436 | 36391 ft | 438 kts | 321° |
| 2026-05-01 13:29 | 49.88840 | 13.75748 | 36391 ft | 438 kts | 321° |
| 2026-05-01 13:31 | 50.02370 | 13.56577 | 36405 ft | 440 kts | 320° |
| 2026-05-01 13:32 | 50.13668 | 13.40438 | 36412 ft | 441 kts | 320° |
| 2026-05-01 13:33 | 50.24951 | 13.24221 | 36415 ft | 441 kts | 320° |
| 2026-05-01 13:34 | 50.33959 | 13.11192 | 36432 ft | 441 kts | 320° |
| 2026-05-01 13:35 | 50.40736 | 13.01339 | 36419 ft | 441 kts | 320° |
| 2026-05-01 13:36 | 50.47479 | 12.91500 | 36423 ft | 441 kts | 319° |
| 2026-05-01 13:36 | 50.54498 | 12.82180 | 36414 ft | 440 kts | 324° |
| 2026-05-01 13:37 | 50.59300 | 12.76206 | 36427 ft | 440 kts | 323° |
| 2026-05-01 13:37 | 50.64060 | 12.70134 | 36417 ft | 440 kts | 323° |
| 2026-05-01 13:38 | 50.71147 | 12.60904 | 36416 ft | 441 kts | 322° |
| 2026-05-01 13:39 | 50.75863 | 12.54733 | 36415 ft | 441 kts | 322° |
| 2026-05-01 13:39 | 50.80585 | 12.48558 | 36413 ft | 440 kts | 322° |
| 2026-05-01 13:40 | 50.85308 | 12.42384 | 36410 ft | 440 kts | 322° |
| 2026-05-01 13:40 | 50.90025 | 12.36198 | 36411 ft | 440 kts | 322° |
| 2026-05-01 13:41 | 50.94739 | 12.29991 | 36403 ft | 440 kts | 322° |
| 2026-05-01 13:41 | 50.99442 | 12.23760 | 36410 ft | 440 kts | 322° |
| 2026-05-01 13:42 | 51.04151 | 12.17534 | 36418 ft | 441 kts | 322° |
| 2026-05-01 13:42 | 51.08856 | 12.11288 | 36419 ft | 441 kts | 322° |
| 2026-05-01 13:43 | 51.13586 | 12.04989 | 36422 ft | 441 kts | 321° |
| 2026-05-01 13:43 | 51.18288 | 11.98714 | 36422 ft | 441 kts | 322° |
| 2026-05-01 13:44 | 51.22984 | 11.92433 | 36411 ft | 441 kts | 321° |
| 2026-05-01 13:44 | 51.27676 | 11.86122 | 36413 ft | 441 kts | 321° |
| 2026-05-01 13:45 | 51.32370 | 11.79798 | 36416 ft | 441 kts | 321° |
| 2026-05-01 13:45 | 51.37064 | 11.73468 | 36421 ft | 442 kts | 321° |
| 2026-05-01 13:46 | 51.41757 | 11.67120 | 36419 ft | 442 kts | 321° |
| 2026-05-01 13:46 | 51.46449 | 11.60747 | 36419 ft | 442 kts | 321° |
| 2026-05-01 13:47 | 51.51133 | 11.54368 | 36411 ft | 442 kts | 321° |
| 2026-05-01 13:47 | 51.55824 | 11.47976 | 36417 ft | 442 kts | 321° |
| 2026-05-01 13:48 | 51.60515 | 11.41559 | 36420 ft | 443 kts | 321° |
| 2026-05-01 13:48 | 51.65200 | 11.35122 | 36425 ft | 443 kts | 321° |
| 2026-05-01 13:49 | 51.69916 | 11.28628 | 36429 ft | 443 kts | 321° |
| 2026-05-01 13:49 | 51.74594 | 11.22174 | 36414 ft | 443 kts | 320° |
| 2026-05-01 13:50 | 51.79275 | 11.15702 | 36408 ft | 443 kts | 320° |
| 2026-05-01 13:50 | 51.84012 | 11.09324 | 36404 ft | 443 kts | 327° |
| 2026-05-01 13:51 | 51.89540 | 11.05080 | 36404 ft | 441 kts | 345° |
| 2026-05-01 13:51 | 51.95582 | 11.03480 | 36406 ft | 440 kts | 353° |
| 2026-05-01 13:52 | 52.01666 | 11.02192 | 36402 ft | 441 kts | 353° |
| 2026-05-01 13:52 | 52.07747 | 11.00878 | 36401 ft | 441 kts | 353° |
| 2026-05-01 13:53 | 52.12781 | 10.99795 | 36405 ft | 441 kts | 353° |
| 2026-05-01 13:53 | 52.21909 | 10.97832 | 36407 ft | 441 kts | 353° |
| 2026-05-01 13:54 | 52.27948 | 10.96533 | 36403 ft | 441 kts | 353° |
| 2026-05-01 13:54 | 52.34061 | 10.95214 | 36398 ft | 442 kts | 352° |
| 2026-05-01 13:55 | 52.40137 | 10.93896 | 36386 ft | 443 kts | 353° |
| 2026-05-01 13:55 | 52.43210 | 10.93227 | 36279 ft | 444 kts | 353° |
| 2026-05-01 13:55 | 52.46296 | 10.92553 | 35287 ft | 452 kts | 352° |
| 2026-05-01 13:56 | 52.49436 | 10.91864 | 34253 ft | 459 kts | 352° |
| 2026-05-01 13:56 | 52.52619 | 10.91165 | 33168 ft | 464 kts | 353° |
| 2026-05-01 13:56 | 52.55832 | 10.90465 | 32125 ft | 467 kts | 353° |
| 2026-05-01 13:56 | 52.59051 | 10.89762 | 31105 ft | 469 kts | 353° |
| 2026-05-01 13:57 | 52.62297 | 10.89050 | 30009 ft | 471 kts | 354° |
| 2026-05-01 13:57 | 52.65558 | 10.88332 | 28880 ft | 472 kts | 353° |
| 2026-05-01 13:57 | 52.68802 | 10.87615 | 27959 ft | 469 kts | 353° |
| 2026-05-01 13:57 | 52.72048 | 10.86893 | 27338 ft | 460 kts | 353° |
| 2026-05-01 13:58 | 52.75199 | 10.86195 | 26688 ft | 454 kts | 353° |
| 2026-05-01 13:58 | 52.78307 | 10.85508 | 26050 ft | 448 kts | 353° |
| 2026-05-01 13:58 | 52.81375 | 10.84832 | 25428 ft | 442 kts | 354° |
| 2026-05-01 13:58 | 52.84408 | 10.84166 | 24809 ft | 437 kts | 353° |
| 2026-05-01 13:59 | 52.87406 | 10.83533 | 24201 ft | 432 kts | 354° |
| 2026-05-01 13:59 | 52.90371 | 10.82933 | 23535 ft | 427 kts | 354° |
| 2026-05-01 13:59 | 52.93299 | 10.82351 | 22935 ft | 420 kts | 354° |
| 2026-05-01 13:59 | 52.96185 | 10.81778 | 22371 ft | 414 kts | 354° |
| 2026-05-01 14:00 | 52.99023 | 10.81212 | 21813 ft | 407 kts | 354° |
| 2026-05-01 14:00 | 53.01816 | 10.80650 | 21278 ft | 402 kts | 354° |
| 2026-05-01 14:00 | 53.04568 | 10.80088 | 20766 ft | 396 kts | 354° |
| 2026-05-01 14:00 | 53.07285 | 10.79527 | 20318 ft | 390 kts | 354° |
| 2026-05-01 14:01 | 53.09973 | 10.78971 | 19774 ft | 387 kts | 354° |
| 2026-05-01 14:01 | 53.12622 | 10.78425 | 19291 ft | 382 kts | 354° |
| 2026-05-01 14:01 | 53.15242 | 10.77886 | 18810 ft | 376 kts | 354° |
| 2026-05-01 14:01 | 53.17822 | 10.77359 | 18287 ft | 372 kts | 354° |
| 2026-05-01 14:02 | 53.20389 | 10.76832 | 17802 ft | 372 kts | 354° |
| 2026-05-01 14:02 | 53.22962 | 10.76304 | 17315 ft | 373 kts | 354° |
| 2026-05-01 14:02 | 53.25532 | 10.75773 | 16806 ft | 371 kts | 354° |
| 2026-05-01 14:02 | 53.28079 | 10.75247 | 16296 ft | 368 kts | 353° |
| 2026-05-01 14:03 | 53.30617 | 10.74725 | 15775 ft | 367 kts | 354° |
| 2026-05-01 14:03 | 53.33148 | 10.74202 | 15263 ft | 370 kts | 353° |
| 2026-05-01 14:03 | 53.35846 | 10.73642 | 14695 ft | 411 kts | 353° |
| 2026-05-01 14:03 | 53.38808 | 10.73030 | 14066 ft | 446 kts | 353° |
| 2026-05-01 14:04 | 53.41874 | 10.72394 | 13900 ft | 424 kts | 353° |
| 2026-05-01 14:04 | 53.44669 | 10.71807 | 13104 ft | 393 kts | 353° |
| 2026-05-01 14:04 | 53.47363 | 10.71239 | 11825 ft | 384 kts | 354° |
| 2026-05-01 14:04 | 53.49104 | 10.70874 | 11565 ft | 361 kts | 354° |
| 2026-05-01 14:05 | 53.52281 | 10.70209 | 11142 ft | 341 kts | 354° |
| 2026-05-01 14:05 | 53.54606 | 10.69726 | 10688 ft | 327 kts | 353° |
| 2026-05-01 14:05 | 53.56803 | 10.69265 | 10273 ft | 308 kts | 353° |
| 2026-05-01 14:05 | 53.58909 | 10.68820 | 10294 ft | 306 kts | 353° |
| 2026-05-01 14:06 | 53.60963 | 10.67841 | 10362 ft | 309 kts | 332° |
| 2026-05-01 14:06 | 53.62653 | 10.65635 | 10383 ft | 309 kts | 308° |
| 2026-05-01 14:06 | 53.63830 | 10.62638 | 10377 ft | 306 kts | 299° |
| 2026-05-01 14:06 | 53.64930 | 10.59573 | 10376 ft | 306 kts | 299° |
| 2026-05-01 14:07 | 53.66061 | 10.56422 | 10379 ft | 329 kts | 299° |
| 2026-05-01 14:07 | 53.67297 | 10.52970 | 10378 ft | 358 kts | 299° |
| 2026-05-01 14:07 | 53.68562 | 10.49455 | 10369 ft | 347 kts | 300° |
| 2026-05-01 14:08 | 53.70900 | 10.42994 | 10370 ft | 310 kts | 299° |
| 2026-05-01 14:08 | 53.72020 | 10.39895 | 10369 ft | 307 kts | 298° |
| 2026-05-01 14:08 | 53.73127 | 10.36816 | 10370 ft | 306 kts | 298° |
| 2026-05-01 14:08 | 53.74230 | 10.33738 | 10369 ft | 306 kts | 298° |
| 2026-05-01 14:09 | 53.75331 | 10.30656 | 10357 ft | 306 kts | 298° |
| 2026-05-01 14:09 | 53.76430 | 10.27574 | 10354 ft | 306 kts | 298° |
| 2026-05-01 14:09 | 53.77530 | 10.24484 | 10355 ft | 307 kts | 298° |
| 2026-05-01 14:09 | 53.78631 | 10.21397 | 10355 ft | 307 kts | 298° |
| 2026-05-01 14:10 | 53.79734 | 10.18306 | 10352 ft | 306 kts | 298° |
| 2026-05-01 14:10 | 53.80831 | 10.15223 | 10295 ft | 306 kts | 298° |
| 2026-05-01 14:10 | 53.81923 | 10.12155 | 9907 ft | 302 kts | 298° |
| 2026-05-01 14:10 | 53.82996 | 10.09138 | 9359 ft | 297 kts | 298° |
| 2026-05-01 14:11 | 53.84054 | 10.06152 | 8779 ft | 294 kts | 298° |
| 2026-05-01 14:11 | 53.86141 | 10.00244 | 7668 ft | 287 kts | 298° |
| 2026-05-01 14:11 | 53.87119 | 9.97310 | 7128 ft | 284 kts | 295° |
| 2026-05-01 14:12 | 53.88007 | 9.94388 | 6807 ft | 272 kts | 294° |
| 2026-05-01 14:12 | 53.88841 | 9.91636 | 6667 ft | 251 kts | 294° |
| 2026-05-01 14:12 | 53.89624 | 9.89076 | 6259 ft | 241 kts | 294° |
| 2026-05-01 14:12 | 53.90387 | 9.86579 | 5696 ft | 237 kts | 294° |
| 2026-05-01 14:13 | 53.91066 | 9.84048 | 5082 ft | 233 kts | 278° |
| 2026-05-01 14:13 | 53.91128 | 9.82241 | 4678 ft | 225 kts | 256° |
| 2026-05-01 14:13 | 53.90104 | 9.79385 | 4124 ft | 215 kts | 212° |
| 2026-05-01 14:13 | 53.88748 | 9.78420 | 3785 ft | 212 kts | 186° |
| 2026-05-01 14:14 | 53.87295 | 9.78579 | 3385 ft | 212 kts | 160° |
| 2026-05-01 14:14 | 53.85968 | 9.79644 | 3041 ft | 209 kts | 152° |
| 2026-05-01 14:14 | 53.84666 | 9.80790 | 3004 ft | 209 kts | 152° |
| 2026-05-01 14:14 | 53.83388 | 9.81910 | 3007 ft | 210 kts | 152° |
| 2026-05-01 14:15 | 53.82069 | 9.83062 | 3004 ft | 211 kts | 152° |
| 2026-05-01 14:15 | 53.80760 | 9.84204 | 3012 ft | 213 kts | 152° |
| 2026-05-01 14:15 | 53.79442 | 9.85353 | 2994 ft | 212 kts | 152° |
| 2026-05-01 14:15 | 53.78174 | 9.86459 | 2834 ft | 198 kts | 152° |
| 2026-05-01 14:16 | 53.76982 | 9.87496 | 2590 ft | 189 kts | 151° |
| 2026-05-01 14:16 | 53.75842 | 9.88488 | 2347 ft | 179 kts | 152° |
| 2026-05-01 14:16 | 53.74756 | 9.89435 | 2115 ft | 172 kts | 152° |
| 2026-05-01 14:16 | 53.73745 | 9.90314 | 1893 ft | 156 kts | 152° |
| 2026-05-01 14:17 | 53.72834 | 9.91105 | 1710 ft | 140 kts | 152° |
| 2026-05-01 14:17 | 53.71985 | 9.91840 | 1486 ft | 134 kts | 152° |
| 2026-05-01 14:17 | 53.71184 | 9.92542 | 1278 ft | 130 kts | 151° |
| 2026-05-01 14:17 | 53.70353 | 9.93262 | 1108 ft | 134 kts | 152° |
| 2026-05-01 14:18 | 53.69518 | 9.93980 | 952 ft | 134 kts | 151° |
| 2026-05-01 14:18 | 53.68690 | 9.94698 | 750 ft | 138 kts | 152° |
| 2026-05-01 14:18 | 53.67835 | 9.95439 | 624 ft | 135 kts | 152° |
| 2026-05-01 14:18 | 53.67269 | 9.95934 | 482 ft | 138 kts | 153° |
| 2026-05-01 14:19 | 53.66417 | 9.96676 | 318 ft | 136 kts | 153° |
| 2026-05-01 14:19 | 53.65296 | 9.97648 | 67 ft | 134 kts | 153° |
| 2026-05-01 14:19 | 53.64562 | 9.98281 | 55 ft | 100 kts | 153° |
| 2026-05-01 14:19 | 53.64096 | 9.98683 | 53 ft | 50 kts | 153° |
| 2026-05-01 14:20 | 53.63839 | 9.98908 | 48 ft | 37 kts | 153° |
| 2026-05-01 14:20 | 53.63481 | 9.99216 | 47 ft | 32 kts | 153° |
| 2026-05-01 14:20 | 53.63319 | 9.99407 | 47 ft | 25 kts | 124° |
| 2026-05-01 14:21 | 53.63281 | 9.99609 | 48 ft | 12 kts | 100° |
| 2026-05-01 14:21 | 53.63285 | 9.99755 | 45 ft | 13 kts | 73° |
| 2026-05-01 14:21 | 53.63343 | 9.99892 | 48 ft | 15 kts | 50° |
| 2026-05-01 14:22 | 53.63401 | 10.00157 | 48 ft | 12 kts | 162° |
| 2026-05-01 14:22 | 53.63319 | 10.00167 | 48 ft | 12 kts | 176° |
| 2026-05-01 14:22 | 53.63233 | 10.00177 | 46 ft | 10 kts | 176° |
| 2026-05-01 14:22 | 53.63201 | 10.00240 | 48 ft | 9 kts | 89° |
| 2026-05-01 14:23 | 53.63205 | 10.00333 | 48 ft | 5 kts | 86° |
| 2026-05-01 14:23 | 53.63206 | 10.00362 | 48 ft | 1 kts | 86° |